Time;durP1;ratioP1;P1;durP2;ratioP2;P2;SDS_P1;SDS_P2;PMS_P1;PMS_P2;Temp;Humidity;BMP_temperature;BMP_pressure;BME280_temperature;BME280_humidity;BME280_pressure;Samples;Min_cycle;Max_cycle;Signal;HPM_P1;HPM_P2
2024/03/14 00:00:17;;;;;;;8.40;4.90;;;;;;;2.65;89.48;101098.04;107447;1251;107552;-72
2024/03/14 00:03:08;;;;;;;7.00;5.30;;;;;;;2.64;89.07;101096.69;107542;1251;97711;-70
2024/03/14 00:05:37;;;;;;;6.40;5.70;;;;;;;2.62;89.08;101094.65;107715;1254;97737;-71
2024/03/14 00:08:05;;;;;;;6.20;5.50;;;;;;;2.61;88.89;101099.31;107565;1253;111905;-70
2024/03/14 00:10:34;;;;;;;5.70;5.10;;;;;;;2.61;89.12;101091.36;107569;1251;108457;-72
2024/03/14 00:13:03;;;;;;;6.90;5.30;;;;;;;2.63;89.21;101093.39;107555;1253;107840;-75
2024/03/14 00:15:32;;;;;;;6.50;5.70;;;;;;;2.64;89.13;101090.86;107689;1251;97803;-73
2024/03/14 00:18:04;;;;;;;7.50;6.10;;;;;;;2.62;88.84;101092.73;107599;1254;97993;-74
2024/03/14 00:20:33;;;;;;;11.50;6.40;;;;;;;2.62;88.96;101092.69;107610;1251;112103;-72
2024/03/14 00:23:03;;;;;;;7.80;6.40;;;;;;;2.65;89.11;101093.64;107756;1250;108326;-72
2024/03/14 00:25:31;;;;;;;8.20;6.40;;;;;;;2.63;88.62;101093.74;107639;1250;106607;-73
2024/03/14 00:28:02;;;;;;;7.70;6.30;;;;;;;2.59;88.40;101089.53;107521;1250;97909;-70
2024/03/14 00:30:31;;;;;;;7.90;5.90;;;;;;;2.58;88.54;101088.52;107845;1248;97830;-71
2024/03/14 00:33:00;;;;;;;7.90;5.60;;;;;;;2.51;87.95;101088.66;107929;1249;111354;-72
2024/03/14 00:35:29;;;;;;;6.10;5.30;;;;;;;2.48;88.12;101091.79;107864;1248;108312;-71
2024/03/14 00:37:58;;;;;;;7.80;6.30;;;;;;;2.48;88.23;101092.52;107806;1248;107841;-70
2024/03/14 00:40:28;;;;;;;6.10;5.50;;;;;;;2.50;88.55;101096.85;107583;1251;97825;-73
2024/03/14 00:42:57;;;;;;;5.80;5.30;;;;;;;2.49;88.28;101096.20;107628;1251;97704;-72
2024/03/14 00:45:26;;;;;;;5.70;4.80;;;;;;;2.45;88.17;101093.54;107655;1251;111294;-72
2024/03/14 00:47:56;;;;;;;6.30;4.40;;;;;;;2.44;88.19;101085.80;107483;1251;107800;-71
2024/03/14 00:50:26;;;;;;;4.60;4.10;;;;;;;2.43;88.28;101091.33;107571;1249;108116;-71
2024/03/14 00:52:55;;;;;;;6.00;4.70;;;;;;;2.41;87.94;101087.70;107727;1250;97841;-72
2024/03/14 00:55:23;;;;;;;5.60;4.90;;;;;;;2.40;88.09;101085.63;107529;1251;99055;-73
2024/03/14 00:57:52;;;;;;;4.40;4.00;;;;;;;2.41;88.27;101090.02;107611;1251;111216;-75
2024/03/14 01:00:23;;;;;;;4.90;4.20;;;;;;;2.40;88.08;101091.86;107732;1250;108432;-73
2024/03/14 01:02:55;;;;;;;4.30;3.30;;;;;;;2.37;87.86;101092.00;107528;1251;107376;-73
2024/03/14 01:05:24;;;;;;;3.80;3.40;;;;;;;2.25;87.09;101090.98;107546;1251;97845;-74
2024/03/14 01:07:53;;;;;;;3.40;3.10;;;;;;;2.23;87.52;101090.02;107466;1251;98383;-73
2024/03/14 01:10:22;;;;;;;3.80;3.20;;;;;;;2.25;87.61;101086.93;107584;1251;111672;-72
2024/03/14 01:12:51;;;;;;;3.40;3.10;;;;;;;2.25;87.93;101087.61;107613;1250;108512;-75
2024/03/14 01:15:22;;;;;;;3.20;2.90;;;;;;;2.25;87.82;101087.81;107531;1256;108525;-73
2024/03/14 01:17:51;;;;;;;2.60;2.40;;;;;;;2.24;87.68;101091.95;107653;1251;97945;-73
2024/03/14 01:20:20;;;;;;;2.90;2.50;;;;;;;2.22;87.83;101090.80;107618;1251;98424;-72
2024/03/14 01:22:49;;;;;;;3.10;2.60;;;;;;;2.22;87.77;101093.79;107821;1248;111447;-71
2024/03/14 01:25:18;;;;;;;3.30;2.90;;;;;;;2.19;87.67;101096.39;107598;1251;107262;-72
2024/03/14 01:27:46;;;;;;;3.30;3.00;;;;;;;2.17;87.73;101094.52;107596;1251;107944;-72
2024/03/14 01:30:15;;;;;;;3.10;2.50;;;;;;;2.17;87.72;101092.07;107582;1251;97736;-73
2024/03/14 01:32:43;;;;;;;3.70;2.90;;;;;;;2.17;87.87;101091.71;107482;1251;97994;-70
2024/03/14 01:35:12;;;;;;;3.20;3.00;;;;;;;2.19;88.01;101092.17;107568;1254;111217;-74
2024/03/14 01:37:40;;;;;;;3.20;2.90;;;;;;;2.17;87.85;101093.11;107582;1251;107351;-72
2024/03/14 01:40:15;;;;;;;3.70;3.20;;;;;;;2.17;87.76;101090.83;107567;1251;108437;-73
2024/03/14 01:42:44;;;;;;;5.70;3.20;;;;;;;2.11;87.50;101089.70;107528;1250;97825;-71
2024/03/14 01:45:15;;;;;;;3.60;3.30;;;;;;;2.11;87.58;101093.39;107477;1253;98392;-75
2024/03/14 01:47:44;;;;;;;2.80;2.60;;;;;;;2.13;87.68;101091.56;107605;1250;111721;-74
2024/03/14 01:50:14;;;;;;;6.40;3.80;;;;;;;2.15;87.70;101089.17;107507;1251;107835;-73
2024/03/14 01:52:44;;;;;;;3.70;3.00;;;;;;;2.14;87.76;101090.46;107637;1250;107984;-71
2024/03/14 01:55:14;;;;;;;5.50;3.20;;;;;;;2.16;87.73;101087.88;107474;1251;97824;-73
2024/03/14 01:57:44;;;;;;;4.80;3.10;;;;;;;2.16;87.69;101087.35;107639;1251;97731;-73
2024/03/14 02:00:18;;;;;;;3.00;2.60;;;;;;;2.17;87.79;101086.94;107634;1250;112154;-71
2024/03/14 02:02:50;;;;;;;2.70;2.50;;;;;;;2.20;87.92;101085.05;107495;1251;109313;-71
2024/03/14 02:05:31;;;;;;;3.30;2.90;;;;;;;2.23;87.97;101088.45;107588;1251;106515;-71
2024/03/14 02:08:00;;;;;;;4.50;3.40;;;;;;;2.21;87.34;101089.96;107519;1251;97849;-73
2024/03/14 02:10:28;;;;;;;3.90;3.40;;;;;;;2.19;87.35;101088.11;107478;1250;97804;-69
2024/03/14 02:12:58;;;;;;;3.20;2.80;;;;;;;2.18;87.47;101093.77;107610;1254;111772;-73
2024/03/14 02:15:27;;;;;;;4.60;3.70;;;;;;;2.21;87.70;101094.89;107590;1251;108333;-72
2024/03/14 02:17:56;;;;;;;3.70;3.30;;;;;;;2.22;87.77;101093.80;107666;1248;107182;-70
2024/03/14 02:20:25;;;;;;;4.00;3.60;;;;;;;2.23;87.88;101095.85;107826;1248;97953;-71
2024/03/14 02:22:54;;;;;;;3.70;3.40;;;;;;;2.24;87.61;101095.27;107625;1250;97842;-71
2024/03/14 02:25:22;;;;;;;3.30;3.00;;;;;;;2.22;87.33;101098.40;107532;1254;111428;-72
2024/03/14 02:27:51;;;;;;;4.40;3.70;;;;;;;2.20;87.22;101102.55;107678;1250;107667;-71
2024/03/14 02:30:19;;;;;;;5.10;4.00;;;;;;;2.14;87.11;101102.45;107554;1251;108192;-70
2024/03/14 02:32:48;;;;;;;4.50;3.70;;;;;;;2.13;87.42;101098.42;107519;1250;97852;-70
2024/03/14 02:35:17;;;;;;;4.50;3.20;;;;;;;2.16;87.53;101102.21;107542;1251;97805;-72
2024/03/14 02:37:46;;;;;;;4.00;3.60;;;;;;;2.17;87.56;101102.14;107518;1253;111497;-72
2024/03/14 02:40:14;;;;;;;4.00;3.60;;;;;;;2.19;87.49;101102.96;107442;1253;107401;-71
2024/03/14 02:42:42;;;;;;;4.60;4.10;;;;;;;2.16;87.27;101103.96;107423;1253;109025;-73
2024/03/14 02:45:11;;;;;;;5.10;4.40;;;;;;;2.16;87.37;101104.34;107419;1253;97944;-71
2024/03/14 02:47:40;;;;;;;5.70;4.50;;;;;;;2.18;87.55;101108.31;107510;1254;97730;-71
2024/03/14 02:50:09;;;;;;;5.50;4.50;;;;;;;2.20;87.58;101105.40;107616;1251;112093;-68
2024/03/14 02:52:38;;;;;;;6.00;5.00;;;;;;;2.14;86.99;101104.95;107510;1254;107894;-71
2024/03/14 02:55:07;;;;;;;6.80;5.00;;;;;;;2.12;87.18;101105.04;107527;1254;108125;-71
2024/03/14 02:57:36;;;;;;;6.20;4.40;;;;;;;2.09;87.41;101107.84;107589;1251;97851;-70
2024/03/14 03:00:14;;;;;;;6.50;4.80;;;;;;;2.11;87.74;101110.57;107546;1254;97957;-69
2024/03/14 03:02:46;;;;;;;7.40;5.90;;;;;;;2.13;87.53;101109.80;107509;1253;110396;-69
2024/03/14 03:05:15;;;;;;;6.30;5.00;;;;;;;2.14;87.74;101111.48;107586;1251;107985;-69
2024/03/14 03:07:43;;;;;;;5.40;4.50;;;;;;;2.15;87.59;101111.42;107422;1253;107841;-70
2024/03/14 03:10:13;;;;;;;6.30;5.20;;;;;;;2.16;87.55;101114.61;107555;1253;97825;-71
2024/03/14 03:12:42;;;;;;;5.60;4.90;;;;;;;2.16;87.58;101117.95;107587;1251;97957;-68
2024/03/14 03:15:10;;;;;;;5.80;5.20;;;;;;;2.16;87.55;101121.12;107581;1251;111894;-67
2024/03/14 03:17:39;;;;;;;6.60;5.60;;;;;;;2.17;87.51;101119.33;107522;1251;107382;-68
2024/03/14 03:20:10;;;;;;;6.40;5.20;;;;;;;2.19;87.80;101121.52;107492;1251;108148;-67
2024/03/14 03:25:28;;;;;;;6.80;6.00;;;;;;;2.24;87.99;101123.25;107594;1251;97716;-67
2024/03/14 03:27:56;;;;;;;7.10;5.80;;;;;;;2.25;87.70;101126.91;107611;1251;111710;-67
2024/03/14 03:30:25;;;;;;;6.90;5.50;;;;;;;2.25;87.49;101128.34;107504;1251;108142;-67
2024/03/14 03:32:54;;;;;;;9.50;5.50;;;;;;;2.22;87.21;101130.06;107565;1251;108210;-67
2024/03/14 03:35:24;;;;;;;7.80;6.40;;;;;;;2.21;87.52;101132.41;107511;1251;97938;-67
2024/03/14 03:37:55;;;;;;;7.20;5.70;;;;;;;2.20;87.53;101133.69;107457;1254;97839;-68
2024/03/14 03:40:24;;;;;;;8.00;6.20;;;;;;;2.18;87.38;101133.27;107582;1251;111472;-67
2024/03/14 03:42:53;;;;;;;7.60;6.50;;;;;;;2.12;87.09;101137.07;107594;1251;109793;-68
2024/03/14 03:45:23;;;;;;;10.50;7.90;;;;;;;2.13;87.73;101138.98;107471;1256;108322;-69
2024/03/14 03:47:54;;;;;;;8.60;7.20;;;;;;;2.14;87.84;101135.02;107535;1251;97753;-71
2024/03/14 03:50:26;;;;;;;9.10;7.60;;;;;;;2.18;87.87;101138.40;107428;1251;97786;-72
2024/03/14 03:52:55;;;;;;;10.10;8.20;;;;;;;2.21;87.75;101139.16;107659;1251;111025;-72
2024/03/14 03:55:25;;;;;;;9.50;6.70;;;;;;;2.18;87.54;101137.84;107623;1251;107194;-67
2024/03/14 03:57:53;;;;;;;10.00;8.40;;;;;;;2.17;87.56;101136.47;107588;1251;106838;-66
2024/03/14 04:03:14;;;;;;;12.70;8.10;;;;;;;2.17;87.49;101141.45;107543;1254;97845;-65
2024/03/14 04:05:43;;;;;;;13.20;9.50;;;;;;;2.16;87.47;101140.60;107552;1250;111791;-65
2024/03/14 04:08:15;;;;;;;12.80;8.40;;;;;;;2.13;87.37;101144.45;107646;1249;108687;-66
2024/03/14 04:10:44;;;;;;;12.50;8.60;;;;;;;2.13;87.60;101146.04;107647;1256;106670;-66
2024/03/14 04:13:15;;;;;;;10.30;8.60;;;;;;;2.14;87.61;101144.24;107889;1248;97827;-69
2024/03/14 04:15:46;;;;;;;10.80;8.90;;;;;;;2.14;87.84;101146.52;107813;1251;97698;-72
2024/03/14 04:18:15;;;;;;;11.70;9.40;;;;;;;2.16;87.88;101147.48;107501;1251;111613;-70
2024/03/14 04:20:45;;;;;;;13.40;9.90;;;;;;;2.20;87.94;101144.66;107647;1251;110640;-73
2024/03/14 04:23:15;;;;;;;13.40;10.00;;;;;;;2.21;87.74;101147.64;107558;1251;108664;-70
2024/03/14 04:25:44;;;;;;;12.90;9.70;;;;;;;2.21;87.81;101151.70;107511;1250;97839;-68
2024/03/14 04:28:13;;;;;;;15.80;11.80;;;;;;;2.18;87.46;101155.21;107552;1250;98398;-68
2024/03/14 04:30:41;;;;;;;16.80;12.50;;;;;;;2.10;87.01;101158.61;107486;1250;112852;-68
2024/03/14 04:33:09;;;;;;;23.70;14.60;;;;;;;2.02;86.97;101161.79;107557;1254;107903;-66
2024/03/14 04:35:38;;;;;;;20.20;13.80;;;;;;;2.03;87.51;101163.33;107530;1251;108679;-65
2024/03/14 04:38:08;;;;;;;21.70;14.60;;;;;;;2.03;87.43;101164.02;107606;1251;97740;-67
2024/03/14 04:40:38;;;;;;;19.70;13.50;;;;;;;2.05;87.45;101166.44;107660;1251;98331;-68
2024/03/14 04:43:09;;;;;;;21.80;15.30;;;;;;;2.01;87.00;101167.85;107596;1251;110986;-67
2024/03/14 04:45:40;;;;;;;25.40;16.80;;;;;;;1.91;86.99;101167.24;107543;1251;108369;-71
2024/03/14 04:48:09;;;;;;;23.90;16.10;;;;;;;1.95;87.52;101165.63;107590;1251;108455;-68
2024/03/14 04:50:40;;;;;;;24.40;16.00;;;;;;;2.01;87.53;101168.05;107604;1251;97917;-70
2024/03/14 04:53:09;;;;;;;24.30;17.10;;;;;;;2.05;87.78;101170.31;107568;1251;97877;-68
2024/03/14 04:55:40;;;;;;;26.30;18.20;;;;;;;2.12;87.91;101167.35;107605;1251;110960;-68
2024/03/14 04:58:09;;;;;;;26.10;16.70;;;;;;;2.16;88.09;101171.56;107569;1251;106799;-68
2024/03/14 05:00:38;;;;;;;24.80;16.40;;;;;;;2.15;87.62;101173.39;107649;1250;108258;-67
2024/03/14 05:03:07;;;;;;;22.10;14.20;;;;;;;2.11;87.54;101178.38;107497;1251;97671;-66
2024/03/14 05:05:35;;;;;;;21.30;14.60;;;;;;;2.02;87.33;101181.42;107506;1250;97710;-67
2024/03/14 05:08:04;;;;;;;22.20;14.80;;;;;;;1.98;87.25;101184.43;107467;1250;111227;-66
2024/03/14 05:10:33;;;;;;;20.10;13.90;;;;;;;2.00;87.57;101183.46;107597;1250;108488;-67
2024/03/14 05:13:02;;;;;;;22.90;14.60;;;;;;;2.03;87.87;101185.63;107466;1251;108341;-67
2024/03/14 05:15:31;;;;;;;20.00;13.60;;;;;;;2.07;87.91;101188.81;107451;1250;97933;-68
2024/03/14 05:18:01;;;;;;;21.30;14.40;;;;;;;2.10;87.76;101190.10;107602;1251;97838;-68
2024/03/14 05:20:31;;;;;;;25.20;14.20;;;;;;;2.13;87.88;101196.86;107630;1253;111329;-70
2024/03/14 05:23:00;;;;;;;22.00;14.70;;;;;;;2.16;88.14;101199.70;107648;1253;106681;-68
2024/03/14 05:25:28;;;;;;;17.60;12.80;;;;;;;2.21;88.02;101200.21;107619;1250;107741;-66
2024/03/14 05:27:57;;;;;;;19.50;13.60;;;;;;;2.24;87.99;101204.11;107539;1251;98067;-70
2024/03/14 05:30:25;;;;;;;22.70;13.70;;;;;;;2.25;87.82;101204.63;107589;1250;97759;-66
2024/03/14 05:32:58;;;;;;;19.00;12.90;;;;;;;2.26;87.83;101206.85;107515;1250;112206;-67
2024/03/14 05:35:28;;;;;;;23.50;13.80;;;;;;;2.25;87.59;101205.32;107440;1253;107685;-67
2024/03/14 05:37:56;;;;;;;22.80;14.70;;;;;;;2.25;87.67;101207.61;107595;1251;108776;-67
2024/03/14 05:40:25;;;;;;;22.10;14.40;;;;;;;2.24;87.53;101210.67;107780;1253;97821;-68
2024/03/14 05:42:54;;;;;;;24.30;12.90;;;;;;;2.18;87.23;101213.05;107546;1253;97839;-67
2024/03/14 05:45:23;;;;;;;18.30;13.10;;;;;;;2.14;87.19;101219.09;107593;1250;112066;-66
2024/03/14 05:48:09;;;;;;;21.50;13.80;;;;;;;2.08;87.14;101212.46;107581;1251;108023;-67
2024/03/14 05:50:38;;;;;;;21.10;13.70;;;;;;;2.04;87.08;101222.02;107592;1250;108537;-67
2024/03/14 05:53:07;;;;;;;19.10;12.70;;;;;;;2.03;87.28;101220.98;107454;1251;97835;-67
2024/03/14 05:55:36;;;;;;;21.30;12.30;;;;;;;1.99;87.11;101221.90;107554;1250;97734;-68
2024/03/14 05:58:08;;;;;;;19.20;14.00;;;;;;;1.95;87.10;101226.84;107480;1250;112034;-67
2024/03/14 06:00:36;;;;;;;19.00;13.60;;;;;;;1.95;87.22;101229.17;107447;1253;107791;-67
2024/03/14 06:03:05;;;;;;;19.60;13.40;;;;;;;1.96;87.36;101227.17;107473;1253;107796;-66
2024/03/14 06:05:34;;;;;;;23.10;14.50;;;;;;;1.97;87.56;101229.58;107452;1250;97832;-65
2024/03/14 06:08:03;;;;;;;20.60;15.10;;;;;;;2.00;87.69;101232.81;107417;1250;97720;-66
2024/03/14 06:10:32;;;;;;;23.50;15.00;;;;;;;2.01;87.85;101232.75;107501;1250;111926;-66
2024/03/14 06:13:00;;;;;;;18.80;13.70;;;;;;;2.01;87.97;101235.77;107382;1250;107298;-65
2024/03/14 06:15:29;;;;;;;27.00;16.40;;;;;;;2.00;87.95;101239.88;107413;1250;109034;-66
2024/03/14 06:17:58;;;;;;;27.10;15.70;;;;;;;2.01;87.91;101240.38;107423;1255;97855;-65
2024/03/14 06:20:27;;;;;;;24.00;17.40;;;;;;;2.02;87.93;101240.86;107443;1250;97838;-67
2024/03/14 06:22:58;;;;;;;27.90;17.00;;;;;;;2.00;88.00;101246.96;107489;1252;112221;-68
2024/03/14 06:25:27;;;;;;;25.50;17.60;;;;;;;2.01;87.95;101247.30;107404;1250;108710;-67
2024/03/14 06:27:55;;;;;;;27.30;17.60;;;;;;;2.02;88.07;101246.17;107378;1254;107797;-66
2024/03/14 06:30:24;;;;;;;22.90;16.30;;;;;;;2.06;88.25;101252.17;107489;1250;97880;-67
2024/03/14 06:32:56;;;;;;;25.70;17.70;;;;;;;2.08;88.15;101255.30;107440;1250;98350;-67
2024/03/14 06:35:24;;;;;;;23.70;17.10;;;;;;;2.12;88.29;101259.19;107559;1250;110521;-68
2024/03/14 06:37:57;;;;;;;26.20;17.10;;;;;;;2.16;88.31;101260.42;107477;1255;107987;-67
2024/03/14 06:40:27;;;;;;;25.20;17.70;;;;;;;2.21;88.31;101263.20;107475;1251;108497;-67
2024/03/14 06:42:56;;;;;;;25.60;17.10;;;;;;;2.23;88.23;101265.76;107517;1251;97897;-66
2024/03/14 06:45:24;;;;;;;29.60;18.20;;;;;;;2.24;88.17;101269.80;107492;1250;97739;-67
2024/03/14 06:47:54;;;;;;;25.90;17.90;;;;;;;2.25;88.23;101271.35;107440;1252;111898;-67
2024/03/14 06:50:24;;;;;;;27.60;18.30;;;;;;;2.28;88.12;101275.09;107489;1251;107829;-67
2024/03/14 06:52:52;;;;;;;29.60;18.00;;;;;;;2.31;88.22;101274.95;107494;1252;107381;-68
2024/03/14 06:55:21;;;;;;;28.80;18.80;;;;;;;2.33;88.26;101277.15;107416;1250;97849;-69
2024/03/14 06:57:52;;;;;;;28.10;18.60;;;;;;;2.37;88.07;101286.02;107414;1250;97712;-68
2024/03/14 07:00:24;;;;;;;32.30;19.80;;;;;;;2.42;88.30;101288.41;107398;1250;111796;-67
2024/03/14 07:02:53;;;;;;;29.20;20.30;;;;;;;2.46;87.93;101292.15;107431;1250;108225;-67
2024/03/14 07:05:22;;;;;;;31.50;19.40;;;;;;;2.52;87.93;101296.30;107480;1251;108865;-67
2024/03/14 07:07:51;;;;;;;32.50;20.60;;;;;;;2.55;87.73;101300.23;107455;1253;97934;-67
2024/03/14 07:10:21;;;;;;;27.20;19.30;;;;;;;2.55;87.64;101302.17;107508;1253;97713;-69
2024/03/14 07:12:49;;;;;;;31.70;19.60;;;;;;;2.58;87.58;101301.67;107489;1253;111051;-65
2024/03/14 07:15:18;;;;;;;31.70;21.40;;;;;;;2.63;87.56;101307.81;107473;1250;108065;-66
2024/03/14 07:17:47;;;;;;;32.50;21.30;;;;;;;2.66;87.41;101308.73;107389;1253;108272;-65
2024/03/14 07:20:17;;;;;;;31.60;21.00;;;;;;;2.72;87.67;101309.73;107530;1251;97830;-65
2024/03/14 07:22:46;;;;;;;31.00;21.30;;;;;;;2.79;87.58;101310.45;107752;1248;98054;-67
2024/03/14 07:25:18;;;;;;;29.60;20.20;;;;;;;2.86;87.54;101312.98;107569;1248;112094;-68
2024/03/14 07:27:48;;;;;;;37.70;23.60;;;;;;;2.93;87.57;101309.99;107509;1251;108043;-68
2024/03/14 07:30:17;;;;;;;30.80;21.10;;;;;;;3.04;87.91;101315.13;107406;1250;108689;-68
2024/03/14 07:32:46;;;;;;;37.80;22.10;;;;;;;3.13;87.53;101312.34;107445;1250;97831;-67
2024/03/14 07:35:19;;;;;;;33.00;21.60;;;;;;;3.22;87.66;101316.91;107428;1250;97829;-68
2024/03/14 07:37:47;;;;;;;34.00;21.30;;;;;;;3.27;87.39;101316.46;107391;1250;111584;-67
2024/03/14 07:40:18;;;;;;;31.20;20.60;;;;;;;3.33;87.34;101317.64;107471;1251;108729;-66
2024/03/14 07:42:48;;;;;;;29.90;21.00;;;;;;;3.37;87.08;101319.73;107439;1250;107089;-66
2024/03/14 07:45:19;;;;;;;30.70;19.30;;;;;;;3.35;86.44;101326.58;107452;1254;97893;-65
2024/03/14 07:47:53;;;;;;;32.20;21.10;;;;;;;3.38;86.73;101325.19;106731;1250;922843;-67
2024/03/14 07:50:22;;;;;;;31.40;20.10;;;;;;;3.42;86.49;101324.79;107391;1250;111405;-66
2024/03/14 07:52:54;;;;;;;33.50;20.70;;;;;;;3.44;86.66;101326.80;107455;1250;108863;-65
2024/03/14 07:55:23;;;;;;;31.40;19.20;;;;;;;3.47;86.42;101329.88;107508;1252;108457;-67
2024/03/14 07:57:51;;;;;;;30.30;20.10;;;;;;;3.44;86.27;101333.17;107498;1253;97950;-70
2024/03/14 08:00:22;;;;;;;30.70;21.00;;;;;;;3.45;86.36;101336.89;107519;1256;97819;-69
2024/03/14 08:02:57;;;;;;;30.00;20.20;;;;;;;3.46;86.27;101340.73;107684;1248;112057;-69
2024/03/14 08:05:31;;;;;;;35.50;21.90;;;;;;;3.47;86.43;101335.52;107734;1251;108650;-67
2024/03/14 08:08:02;;;;;;;28.60;20.20;;;;;;;3.50;86.06;101338.75;107510;1253;107717;-69
2024/03/14 08:10:47;;;;;;;30.50;20.40;;;;;;;3.54;86.19;101341.06;107503;1251;97762;-68
2024/03/14 08:13:20;;;;;;;32.30;21.50;;;;;;;3.58;86.19;101341.20;107480;1251;97701;-70
2024/03/14 08:15:59;;;;;;;31.70;22.10;;;;;;;3.62;86.41;101341.35;107533;1251;112239;-66
2024/03/14 08:18:30;;;;;;;34.60;22.70;;;;;;;3.72;86.54;101341.41;107494;1252;108742;-66
2024/03/14 08:20:59;;;;;;;34.00;22.80;;;;;;;3.81;86.28;101344.15;107500;1254;108224;-66
2024/03/14 08:23:28;;;;;;;34.10;21.30;;;;;;;3.88;86.21;101345.02;107588;1254;97830;-67
2024/03/14 08:25:57;;;;;;;32.40;21.20;;;;;;;3.99;86.25;101342.14;107588;1253;98383;-68
2024/03/14 08:28:26;;;;;;;32.90;22.20;;;;;;;4.09;85.67;101341.27;107527;1255;112190;-68
2024/03/14 08:30:55;;;;;;;29.00;20.20;;;;;;;4.20;85.96;101342.67;107614;1251;108343;-67
2024/03/14 08:33:23;;;;;;;30.20;19.70;;;;;;;4.32;85.95;101344.33;107389;1254;107929;-69
2024/03/14 08:35:53;;;;;;;33.30;19.30;;;;;;;4.47;85.75;101341.58;107372;1253;97714;-70
2024/03/14 08:38:23;;;;;;;30.60;20.20;;;;;;;4.65;85.64;101345.40;107410;1251;98389;-67
2024/03/14 08:40:52;;;;;;;31.40;19.30;;;;;;;4.79;85.17;101341.25;107382;1250;111322;-67
2024/03/14 08:43:21;;;;;;;31.00;19.50;;;;;;;4.91;85.40;101345.23;107454;1251;107919;-68
2024/03/14 08:45:53;;;;;;;27.20;18.00;;;;;;;5.06;85.17;101347.79;107585;1254;108539;-68
2024/03/14 08:48:22;;;;;;;28.70;19.10;;;;;;;5.16;84.59;101349.38;107488;1253;97837;-69
2024/03/14 08:50:53;;;;;;;26.40;18.60;;;;;;;5.24;84.43;101348.23;107562;1255;97845;-68
2024/03/14 08:53:22;;;;;;;33.20;20.30;;;;;;;5.29;83.86;101349.67;107607;1250;111551;-68
2024/03/14 08:55:57;;;;;;;29.60;19.50;;;;;;;5.39;84.06;101345.73;107553;1253;107900;-69
2024/03/14 08:58:26;;;;;;;28.60;19.20;;;;;;;5.49;83.57;101348.91;107506;1252;107674;-70
2024/03/14 09:00:56;;;;;;;27.30;16.60;;;;;;;5.59;83.13;101350.49;107544;1252;97900;-69
2024/03/14 09:03:27;;;;;;;28.30;19.10;;;;;;;5.67;82.08;101351.48;107540;1250;98363;-69
2024/03/14 09:05:57;;;;;;;32.00;20.70;;;;;;;5.71;81.91;101354.41;107578;1254;111562;-67
2024/03/14 09:08:26;;;;;;;27.20;17.90;;;;;;;5.84;81.95;101356.86;107450;1250;107515;-69
2024/03/14 09:10:55;;;;;;;28.30;18.30;;;;;;;5.96;81.55;101356.68;107391;1250;108240;-66
2024/03/14 09:13:25;;;;;;;29.40;18.20;;;;;;;6.07;80.63;101352.69;107536;1251;97724;-69
2024/03/14 09:15:55;;;;;;;26.00;17.10;;;;;;;6.17;80.25;101354.41;107648;1254;98372;-68
2024/03/14 09:18:25;;;;;;;29.40;19.60;;;;;;;6.28;79.96;101350.70;107503;1251;111989;-69
2024/03/14 09:20:56;;;;;;;29.80;18.40;;;;;;;6.36;80.04;101350.58;107630;1249;108502;-69
2024/03/14 09:23:27;;;;;;;26.80;18.10;;;;;;;6.41;79.39;101353.29;107589;1250;107741;-69
2024/03/14 09:25:57;;;;;;;31.30;20.10;;;;;;;6.46;79.44;101352.83;107462;1250;97837;-70
2024/03/14 09:28:27;;;;;;;29.30;18.00;;;;;;;6.52;79.02;101352.96;107516;1250;98402;-69
2024/03/14 09:30:58;;;;;;;27.90;16.10;;;;;;;6.53;78.95;101354.31;107590;1253;112197;-70
2024/03/14 09:33:28;;;;;;;28.00;17.50;;;;;;;6.57;78.72;101356.58;107547;1251;107358;-70
2024/03/14 09:35:58;;;;;;;29.00;16.90;;;;;;;6.56;77.56;101356.31;107572;1255;105614;-71
2024/03/14 09:38:27;;;;;;;32.00;18.30;;;;;;;6.50;76.64;101356.80;107608;1253;97716;-75
2024/03/14 09:40:56;;;;;;;33.30;17.00;;;;;;;6.54;77.52;101354.30;107726;1248;97845;-69
2024/03/14 09:43:37;;;;;;;36.10;17.60;;;;;;;6.55;76.32;101354.54;107500;1253;112092;-70
2024/03/14 09:46:08;;;;;;;27.20;17.20;;;;;;;6.54;76.77;101353.01;107490;1251;108294;-67
2024/03/14 09:48:37;;;;;;;33.10;16.00;;;;;;;6.54;76.40;101353.92;107573;1251;107351;-66
2024/03/14 09:51:09;;;;;;;29.30;16.90;;;;;;;6.51;76.51;101356.06;107587;1248;97768;-66
2024/03/14 09:53:39;;;;;;;26.60;15.70;;;;;;;6.46;75.75;101358.52;107529;1250;98378;-68
2024/03/14 09:56:08;;;;;;;32.70;18.50;;;;;;;6.37;75.72;101360.65;107475;1253;110696;-66
2024/03/14 09:58:39;;;;;;;35.20;18.80;;;;;;;6.32;76.00;101357.56;107553;1250;108340;-69
2024/03/14 10:01:11;;;;;;;34.30;22.30;;;;;;;6.34;75.62;101364.77;107503;1256;107802;-70
2024/03/14 10:03:40;;;;;;;38.40;19.50;;;;;;;6.29;75.73;101362.23;107544;1250;97710;-68
2024/03/14 10:06:17;;;;;;;33.50;18.40;;;;;;;6.32;75.50;101367.01;107530;1253;97745;-66
2024/03/14 10:08:48;;;;;;;42.20;18.50;;;;;;;6.33;75.19;101365.55;107633;1251;111685;-68
2024/03/14 10:11:21;;;;;;;31.00;17.10;;;;;;;6.25;74.25;101366.20;107599;1250;108439;-67
2024/03/14 10:13:49;;;;;;;34.30;18.80;;;;;;;6.12;74.14;101366.81;107528;1253;108227;-66
2024/03/14 10:16:21;;;;;;;32.30;18.80;;;;;;;6.01;74.62;101364.81;107569;1254;97825;-68
2024/03/14 10:18:52;;;;;;;32.90;20.90;;;;;;;5.94;74.82;101363.00;107537;1254;97842;-66
2024/03/14 10:21:21;;;;;;;28.70;17.80;;;;;;;5.91;74.44;101364.98;107495;1253;110869;-66
2024/03/14 10:23:51;;;;;;;30.60;20.60;;;;;;;5.87;74.72;101360.23;107619;1253;108422;-66
2024/03/14 10:26:22;;;;;;;38.80;19.90;;;;;;;5.86;74.85;101361.04;107564;1250;108757;-67
2024/03/14 10:28:51;;;;;;;41.70;21.20;;;;;;;5.86;75.21;101360.86;107556;1253;97855;-68
2024/03/14 10:31:21;;;;;;;34.20;19.80;;;;;;;5.86;75.35;101362.79;107624;1250;97990;-69
2024/03/14 10:33:49;;;;;;;29.40;18.70;;;;;;;5.80;75.27;101361.71;107543;1251;111141;-69
2024/03/14 10:36:19;;;;;;;32.80;19.10;;;;;;;5.71;75.53;101360.45;107609;1253;108117;-67
2024/03/14 10:38:50;;;;;;;35.00;19.90;;;;;;;5.69;75.83;101360.58;107543;1251;108496;-68
2024/03/14 10:41:25;;;;;;;41.60;20.70;;;;;;;5.71;75.74;101357.77;107482;1250;98582;-67
2024/03/14 10:43:58;;;;;;;40.90;19.70;;;;;;;5.69;75.67;101360.02;107574;1254;97716;-67
2024/03/14 10:46:30;;;;;;;37.40;19.10;;;;;;;5.66;76.15;101357.94;107528;1253;110636;-66
2024/03/14 10:49:01;;;;;;;27.80;18.40;;;;;;;5.66;75.65;101359.16;107638;1251;107153;-68
2024/03/14 10:51:31;;;;;;;34.40;19.90;;;;;;;5.62;75.04;101361.66;107532;1251;107933;-68
2024/03/14 10:54:04;;;;;;;31.90;20.60;;;;;;;5.60;74.79;101360.36;107603;1256;97836;-68
2024/03/14 10:56:36;;;;;;;29.30;18.50;;;;;;;5.57;75.13;101355.20;107522;1250;97823;-69
2024/03/14 10:59:09;;;;;;;34.00;19.80;;;;;;;5.54;75.07;101357.16;107550;1256;112197;-66
2024/03/14 11:01:40;;;;;;;39.60;19.90;;;;;;;5.49;75.23;101352.50;107566;1250;108384;-66
2024/03/14 11:04:11;;;;;;;33.60;18.10;;;;;;;5.47;75.20;101354.39;107497;1250;108744;-66
2024/03/14 11:06:44;;;;;;;29.40;18.80;;;;;;;5.49;75.38;101350.91;107466;1253;97856;-69
2024/03/14 11:09:17;;;;;;;58.20;20.10;;;;;;;5.56;75.36;101352.60;107554;1255;98450;-66
2024/03/14 11:11:51;;;;;;;35.80;19.00;;;;;;;5.64;75.63;101348.42;107597;1251;111420;-65
2024/03/14 11:14:30;;;;;;;33.90;20.50;;;;;;;5.73;75.35;101348.75;107603;1251;107662;-63
2024/03/14 11:17:02;;;;;;;30.10;19.10;;;;;;;5.78;75.46;101348.34;107580;1256;108310;-63
2024/03/14 11:19:31;;;;;;;48.00;19.80;;;;;;;5.86;75.52;101348.17;107543;1250;97912;-65
2024/03/14 11:21:59;;;;;;;42.10;19.50;;;;;;;5.96;75.42;101348.69;107489;1253;97832;-64
2024/03/14 11:24:30;;;;;;;38.40;19.10;;;;;;;6.03;74.96;101350.42;107678;1250;112365;-64
2024/03/14 11:27:01;;;;;;;43.20;18.60;;;;;;;6.03;75.01;101346.52;107615;1250;108758;-64